sensor_id;sensor_type;location;lat;lon;timestamp;pressure;altitude;pressure_sealevel;temperature;humidity
76858;BME280;65830;0.000;0.000;2023-05-10T00:02:23;100239.84;;;11.94;65.28
76858;BME280;65830;0.000;0.000;2023-05-10T00:04:49;100244.34;;;11.94;65.10
76858;BME280;65830;0.000;0.000;2023-05-10T00:07:15;100241.25;;;11.98;65.16
76858;BME280;65830;0.000;0.000;2023-05-10T00:09:42;100237.31;;;11.92;65.27
76858;BME280;65830;0.000;0.000;2023-05-10T00:12:08;100234.94;;;11.89;65.42
76858;BME280;65830;0.000;0.000;2023-05-10T00:14:33;100234.19;;;11.87;65.77
76858;BME280;65830;0.000;0.000;2023-05-10T00:16:59;100230.56;;;11.88;66.52
76858;BME280;65830;0.000;0.000;2023-05-10T00:19:24;100222.28;;;11.82;66.09
76858;BME280;65830;0.000;0.000;2023-05-10T00:21:50;100231.78;;;11.84;66.85
76858;BME280;65830;0.000;0.000;2023-05-10T00:24:15;100235.44;;;11.83;66.49
76858;BME280;65830;0.000;0.000;2023-05-10T00:26:41;100236.28;;;11.84;66.51
76858;BME280;65830;0.000;0.000;2023-05-10T00:29:08;100230.13;;;11.83;67.08
76858;BME280;65830;0.000;0.000;2023-05-10T00:31:33;100231.53;;;11.87;66.86
76858;BME280;65830;0.000;0.000;2023-05-10T00:33:59;100228.44;;;11.82;67.12
76858;BME280;65830;0.000;0.000;2023-05-10T00:36:24;100234.16;;;11.78;67.09
76858;BME280;65830;0.000;0.000;2023-05-10T00:38:50;100218.59;;;11.73;67.43
76858;BME280;65830;0.000;0.000;2023-05-10T00:41:16;100224.19;;;11.70;67.52
76858;BME280;65830;0.000;0.000;2023-05-10T00:43:43;100221.06;;;11.65;67.69
76858;BME280;65830;0.000;0.000;2023-05-10T00:46:09;100224.78;;;11.52;67.88
76858;BME280;65830;0.000;0.000;2023-05-10T00:48:35;100219.47;;;11.52;68.38
76858;BME280;65830;0.000;0.000;2023-05-10T00:51:01;100213.91;;;11.56;68.46
76858;BME280;65830;0.000;0.000;2023-05-10T00:53:26;100216.09;;;11.50;68.70
76858;BME280;65830;0.000;0.000;2023-05-10T00:55:52;100216.81;;;11.52;68.50
76858;BME280;65830;0.000;0.000;2023-05-10T00:58:18;100220.88;;;11.57;68.32
76858;BME280;65830;0.000;0.000;2023-05-10T01:00:43;100218.75;;;11.50;68.10
76858;BME280;65830;0.000;0.000;2023-05-10T01:03:11;100217.22;;;11.48;68.66
76858;BME280;65830;0.000;0.000;2023-05-10T01:05:37;100225.19;;;11.48;68.02
76858;BME280;65830;0.000;0.000;2023-05-10T01:08:02;100222.19;;;11.41;67.92
76858;BME280;65830;0.000;0.000;2023-05-10T01:10:29;100219.41;;;11.43;68.75
76858;BME280;65830;0.000;0.000;2023-05-10T01:12:54;100219.53;;;11.41;68.47
76858;BME280;65830;0.000;0.000;2023-05-10T01:15:20;100224.00;;;11.41;68.66
76858;BME280;65830;0.000;0.000;2023-05-10T01:17:46;100226.41;;;11.44;68.04
76858;BME280;65830;0.000;0.000;2023-05-10T01:20:12;100222.47;;;11.38;68.78
76858;BME280;65830;0.000;0.000;2023-05-10T01:25:19;100231.38;;;11.37;68.58
76858;BME280;65830;0.000;0.000;2023-05-10T01:41:08;100232.84;;;11.20;69.27
76858;BME280;65830;0.000;0.000;2023-05-10T01:46:24;100228.22;;;11.22;69.49
76858;BME280;65830;0.000;0.000;2023-05-10T01:48:54;100233.41;;;11.24;69.38
76858;BME280;65830;0.000;0.000;2023-05-10T01:51:24;100227.63;;;11.19;69.97
76858;BME280;65830;0.000;0.000;2023-05-10T01:53:54;100222.84;;;11.12;69.60
76858;BME280;65830;0.000;0.000;2023-05-10T01:56:23;100226.94;;;11.17;69.91
76858;BME280;65830;0.000;0.000;2023-05-10T01:58:49;100226.09;;;11.16;70.32
76858;BME280;65830;0.000;0.000;2023-05-10T02:01:17;100229.00;;;11.13;70.08
76858;BME280;65830;0.000;0.000;2023-05-10T02:03:44;100221.66;;;11.05;70.15
76858;BME280;65830;0.000;0.000;2023-05-10T02:06:10;100231.56;;;11.03;69.99
76858;BME280;65830;0.000;0.000;2023-05-10T02:08:38;100221.06;;;11.02;69.82
76858;BME280;65830;0.000;0.000;2023-05-10T02:11:05;100226.03;;;11.06;70.21
76858;BME280;65830;0.000;0.000;2023-05-10T02:13:31;100235.78;;;11.06;69.80
76858;BME280;65830;0.000;0.000;2023-05-10T02:15:59;100228.53;;;11.08;69.85
76858;BME280;65830;0.000;0.000;2023-05-10T02:18:26;100234.22;;;11.03;69.64
76858;BME280;65830;0.000;0.000;2023-05-10T02:20:52;100232.16;;;11.07;69.92
76858;BME280;65830;0.000;0.000;2023-05-10T02:23:19;100238.09;;;10.99;69.71
76858;BME280;65830;0.000;0.000;2023-05-10T02:25:45;100235.44;;;10.99;69.84
76858;BME280;65830;0.000;0.000;2023-05-10T02:28:13;100239.09;;;10.98;70.21
76858;BME280;65830;0.000;0.000;2023-05-10T02:30:39;100231.97;;;10.99;70.19
76858;BME280;65830;0.000;0.000;2023-05-10T02:33:05;100230.03;;;11.01;69.91
76858;BME280;65830;0.000;0.000;2023-05-10T02:35:31;100230.63;;;11.04;70.14
76858;BME280;65830;0.000;0.000;2023-05-10T02:37:58;100240.53;;;11.02;69.72
76858;BME280;65830;0.000;0.000;2023-05-10T02:40:24;100235.44;;;10.99;69.91
76858;BME280;65830;0.000;0.000;2023-05-10T02:42:52;100242.31;;;11.02;70.11
76858;BME280;65830;0.000;0.000;2023-05-10T02:45:20;100242.47;;;11.00;70.19
76858;BME280;65830;0.000;0.000;2023-05-10T02:47:47;100241.75;;;10.98;70.15
76858;BME280;65830;0.000;0.000;2023-05-10T02:50:13;100240.81;;;10.88;70.20
76858;BME280;65830;0.000;0.000;2023-05-10T02:52:39;100239.53;;;10.82;70.34
76858;BME280;65830;0.000;0.000;2023-05-10T02:55:06;100238.41;;;10.85;70.40
76858;BME280;65830;0.000;0.000;2023-05-10T02:57:34;100237.59;;;10.84;70.63
76858;BME280;65830;0.000;0.000;2023-05-10T03:00:01;100237.69;;;10.83;70.29
76858;BME280;65830;0.000;0.000;2023-05-10T03:02:28;100235.03;;;10.83;70.00
76858;BME280;65830;0.000;0.000;2023-05-10T03:04:55;100237.44;;;10.86;70.34
76858;BME280;65830;0.000;0.000;2023-05-10T03:07:21;100236.47;;;10.87;70.40
76858;BME280;65830;0.000;0.000;2023-05-10T03:09:48;100242.50;;;10.89;70.43
76858;BME280;65830;0.000;0.000;2023-05-10T03:15:15;100237.19;;;10.89;70.56
76858;BME280;65830;0.000;0.000;2023-05-10T03:20:26;100240.34;;;10.83;70.37
76858;BME280;65830;0.000;0.000;2023-05-10T03:25:53;100249.28;;;10.82;70.56
76858;BME280;65830;0.000;0.000;2023-05-10T03:28:20;100244.94;;;10.81;70.61
76858;BME280;65830;0.000;0.000;2023-05-10T03:30:46;100252.78;;;10.82;70.46
76858;BME280;65830;0.000;0.000;2023-05-10T03:33:12;100245.06;;;10.79;70.23
76858;BME280;65830;0.000;0.000;2023-05-10T03:35:41;100249.53;;;10.79;70.24
76858;BME280;65830;0.000;0.000;2023-05-10T03:38:07;100258.22;;;10.81;70.29
76858;BME280;65830;0.000;0.000;2023-05-10T03:40:32;100260.75;;;10.82;70.17
76858;BME280;65830;0.000;0.000;2023-05-10T03:42:58;100263.25;;;10.84;70.30
76858;BME280;65830;0.000;0.000;2023-05-10T03:45:25;100265.19;;;10.82;70.67
76858;BME280;65830;0.000;0.000;2023-05-10T03:47:51;100264.25;;;10.83;70.12
76858;BME280;65830;0.000;0.000;2023-05-10T03:50:16;100262.94;;;10.77;70.37
76858;BME280;65830;0.000;0.000;2023-05-10T03:52:42;100262.53;;;10.82;70.83
76858;BME280;65830;0.000;0.000;2023-05-10T03:55:08;100268.34;;;10.87;70.83
76858;BME280;65830;0.000;0.000;2023-05-10T03:57:33;100263.03;;;10.87;70.38
76858;BME280;65830;0.000;0.000;2023-05-10T03:59:59;100270.00;;;10.88;70.24
76858;BME280;65830;0.000;0.000;2023-05-10T04:02:28;100271.94;;;10.86;69.91
76858;BME280;65830;0.000;0.000;2023-05-10T04:04:55;100269.28;;;10.86;69.73
76858;BME280;65830;0.000;0.000;2023-05-10T04:07:21;100281.50;;;10.88;70.29
76858;BME280;65830;0.000;0.000;2023-05-10T04:09:47;100278.69;;;10.90;70.64
76858;BME280;65830;0.000;0.000;2023-05-10T04:12:12;100284.00;;;10.90;70.04
76858;BME280;65830;0.000;0.000;2023-05-10T04:14:38;100274.81;;;10.94;69.59
76858;BME280;65830;0.000;0.000;2023-05-10T04:17:04;100287.63;;;10.89;69.59
76858;BME280;65830;0.000;0.000;2023-05-10T04:19:32;100278.84;;;10.88;69.71
76858;BME280;65830;0.000;0.000;2023-05-10T04:21:58;100280.38;;;10.91;69.30
76858;BME280;65830;0.000;0.000;2023-05-10T04:24:25;100285.44;;;10.94;69.50
76858;BME280;65830;0.000;0.000;2023-05-10T04:26:50;100284.94;;;11.00;69.60
76858;BME280;65830;0.000;0.000;2023-05-10T04:29:16;100293.63;;;11.02;69.14
76858;BME280;65830;0.000;0.000;2023-05-10T04:31:42;100288.84;;;10.96;69.46
76858;BME280;65830;0.000;0.000;2023-05-10T04:34:08;100289.16;;;11.03;69.21
76858;BME280;65830;0.000;0.000;2023-05-10T04:36:33;100288.31;;;11.02;69.25
76858;BME280;65830;0.000;0.000;2023-05-10T04:39:01;100296.03;;;11.05;69.25
76858;BME280;65830;0.000;0.000;2023-05-10T04:41:28;100292.75;;;11.02;68.70
76858;BME280;65830;0.000;0.000;2023-05-10T04:43:54;100302.31;;;11.04;68.91
76858;BME280;65830;0.000;0.000;2023-05-10T04:46:19;100295.78;;;11.08;68.86
76858;BME280;65830;0.000;0.000;2023-05-10T04:48:45;100290.34;;;11.10;69.16
76858;BME280;65830;0.000;0.000;2023-05-10T04:51:11;100299.59;;;11.16;68.69
76858;BME280;65830;0.000;0.000;2023-05-10T04:53:37;100295.28;;;11.15;68.59
76858;BME280;65830;0.000;0.000;2023-05-10T04:56:03;100284.00;;;11.22;68.38
76858;BME280;65830;0.000;0.000;2023-05-10T04:58:28;100283.16;;;11.22;67.97
76858;BME280;65830;0.000;0.000;2023-05-10T05:00:54;100291.88;;;11.24;67.50
76858;BME280;65830;0.000;0.000;2023-05-10T05:03:20;100298.72;;;11.26;67.31
76858;BME280;65830;0.000;0.000;2023-05-10T05:05:46;100290.88;;;11.25;67.14
76858;BME280;65830;0.000;0.000;2023-05-10T05:08:12;100298.38;;;11.20;66.67
76858;BME280;65830;0.000;0.000;2023-05-10T05:10:38;100299.94;;;11.22;66.93
76858;BME280;65830;0.000;0.000;2023-05-10T05:13:07;100301.81;;;11.31;67.22
76858;BME280;65830;0.000;0.000;2023-05-10T05:15:32;100293.09;;;11.41;66.55
76858;BME280;65830;0.000;0.000;2023-05-10T05:17:58;100298.16;;;11.44;66.33
76858;BME280;65830;0.000;0.000;2023-05-10T05:20:23;100295.09;;;11.48;66.33
76858;BME280;65830;0.000;0.000;2023-05-10T05:22:49;100289.50;;;11.51;66.63
76858;BME280;65830;0.000;0.000;2023-05-10T05:25:15;100295.31;;;11.57;66.99
76858;BME280;65830;0.000;0.000;2023-05-10T05:27:41;100276.28;;;11.61;66.48
76858;BME280;65830;0.000;0.000;2023-05-10T05:30:09;100286.81;;;11.63;66.67
76858;BME280;65830;0.000;0.000;2023-05-10T05:32:34;100286.38;;;11.58;66.61
76858;BME280;65830;0.000;0.000;2023-05-10T05:35:00;100283.03;;;11.65;66.91
76858;BME280;65830;0.000;0.000;2023-05-10T05:37:26;100281.81;;;11.69;66.34
76858;BME280;65830;0.000;0.000;2023-05-10T05:39:51;100277.06;;;11.73;66.22
76858;BME280;65830;0.000;0.000;2023-05-10T05:42:17;100278.88;;;11.72;66.14
76858;BME280;65830;0.000;0.000;2023-05-10T05:44:44;100281.66;;;11.71;66.13
76858;BME280;65830;0.000;0.000;2023-05-10T05:47:10;100285.63;;;11.77;66.29
76858;BME280;65830;0.000;0.000;2023-05-10T05:49:35;100293.19;;;11.81;66.41
76858;BME280;65830;0.000;0.000;2023-05-10T05:52:01;100298.84;;;11.88;66.65
76858;BME280;65830;0.000;0.000;2023-05-10T05:54:27;100302.97;;;11.92;66.45
76858;BME280;65830;0.000;0.000;2023-05-10T05:56:54;100294.66;;;11.85;65.50
76858;BME280;65830;0.000;0.000;2023-05-10T05:59:22;100306.84;;;11.88;66.32
76858;BME280;65830;0.000;0.000;2023-05-10T06:01:48;100299.81;;;11.87;66.13
76858;BME280;65830;0.000;0.000;2023-05-10T06:04:19;100305.28;;;11.85;66.10
76858;BME280;65830;0.000;0.000;2023-05-10T06:06:45;100304.91;;;11.90;65.97
76858;BME280;65830;0.000;0.000;2023-05-10T06:09:11;100304.28;;;11.86;66.38
76858;BME280;65830;0.000;0.000;2023-05-10T06:12:00;100304.91;;;11.90;66.22
76858;BME280;65830;0.000;0.000;2023-05-10T06:14:51;100301.13;;;11.92;66.44
76858;BME280;65830;0.000;0.000;2023-05-10T06:17:17;100304.38;;;11.96;66.62
76858;BME280;65830;0.000;0.000;2023-05-10T06:19:43;100301.63;;;11.86;66.31
76858;BME280;65830;0.000;0.000;2023-05-10T06:22:08;100309.56;;;11.98;66.32
76858;BME280;65830;0.000;0.000;2023-05-10T06:24:34;100316.19;;;12.03;66.02
76858;BME280;65830;0.000;0.000;2023-05-10T06:26:59;100314.66;;;12.10;65.72
76858;BME280;65830;0.000;0.000;2023-05-10T06:29:25;100322.44;;;12.23;66.02
76858;BME280;65830;0.000;0.000;2023-05-10T06:31:51;100314.09;;;12.38;65.93
76858;BME280;65830;0.000;0.000;2023-05-10T06:34:17;100315.38;;;12.43;65.31
76858;BME280;65830;0.000;0.000;2023-05-10T06:36:42;100317.38;;;12.51;64.54
76858;BME280;65830;0.000;0.000;2023-05-10T06:39:08;100319.88;;;12.52;64.62
76858;BME280;65830;0.000;0.000;2023-05-10T06:41:33;100324.94;;;12.56;64.54
76858;BME280;65830;0.000;0.000;2023-05-10T06:43:59;100323.09;;;12.56;64.06
76858;BME280;65830;0.000;0.000;2023-05-10T06:46:24;100318.78;;;12.55;64.49
76858;BME280;65830;0.000;0.000;2023-05-10T06:48:50;100319.47;;;12.57;63.94
76858;BME280;65830;0.000;0.000;2023-05-10T06:51:16;100319.91;;;12.62;64.97
76858;BME280;65830;0.000;0.000;2023-05-10T06:53:41;100323.47;;;12.73;64.26
76858;BME280;65830;0.000;0.000;2023-05-10T06:56:07;100318.13;;;12.73;64.10
76858;BME280;65830;0.000;0.000;2023-05-10T06:58:35;100319.78;;;12.74;64.59
76858;BME280;65830;0.000;0.000;2023-05-10T07:01:02;100313.22;;;12.78;64.35
76858;BME280;65830;0.000;0.000;2023-05-10T07:03:28;100325.00;;;12.75;63.12
76858;BME280;65830;0.000;0.000;2023-05-10T07:05:53;100321.34;;;12.76;63.74
76858;BME280;65830;0.000;0.000;2023-05-10T07:08:20;100317.97;;;12.74;63.26
76858;BME280;65830;0.000;0.000;2023-05-10T07:10:46;100319.78;;;12.74;63.16
76858;BME280;65830;0.000;0.000;2023-05-10T07:13:11;100317.28;;;12.82;63.64
76858;BME280;65830;0.000;0.000;2023-05-10T07:15:37;100320.66;;;12.84;62.71
76858;BME280;65830;0.000;0.000;2023-05-10T07:18:02;100313.94;;;12.89;62.91
76858;BME280;65830;0.000;0.000;2023-05-10T07:20:29;100311.28;;;12.99;63.60
76858;BME280;65830;0.000;0.000;2023-05-10T07:22:55;100313.41;;;13.05;62.97
76858;BME280;65830;0.000;0.000;2023-05-10T07:25:21;100316.34;;;13.12;63.35
76858;BME280;65830;0.000;0.000;2023-05-10T07:27:46;100316.75;;;13.07;61.93
76858;BME280;65830;0.000;0.000;2023-05-10T07:30:13;100319.88;;;13.13;61.74
76858;BME280;65830;0.000;0.000;2023-05-10T07:32:39;100317.03;;;13.24;62.90
76858;BME280;65830;0.000;0.000;2023-05-10T07:35:07;100323.41;;;13.42;63.18
76858;BME280;65830;0.000;0.000;2023-05-10T07:37:33;100328.44;;;13.45;62.08
76858;BME280;65830;0.000;0.000;2023-05-10T07:39:58;100334.06;;;13.62;60.31
76858;BME280;65830;0.000;0.000;2023-05-10T07:42:24;100320.44;;;13.65;59.49
76858;BME280;65830;0.000;0.000;2023-05-10T07:44:49;100326.75;;;13.74;60.11
76858;BME280;65830;0.000;0.000;2023-05-10T07:47:16;100324.50;;;13.69;60.18
76858;BME280;65830;0.000;0.000;2023-05-10T07:49:41;100325.19;;;13.81;60.61
76858;BME280;65830;0.000;0.000;2023-05-10T07:52:07;100333.59;;;13.96;60.40
76858;BME280;65830;0.000;0.000;2023-05-10T07:54:32;100331.25;;;14.20;58.94
76858;BME280;65830;0.000;0.000;2023-05-10T07:56:59;100334.34;;;14.25;59.46
76858;BME280;65830;0.000;0.000;2023-05-10T07:59:25;100332.34;;;14.27;58.30
76858;BME280;65830;0.000;0.000;2023-05-10T08:01:50;100333.06;;;14.29;57.24
76858;BME280;65830;0.000;0.000;2023-05-10T08:04:18;100330.38;;;14.29;57.75
76858;BME280;65830;0.000;0.000;2023-05-10T08:06:44;100344.69;;;14.28;57.07
76858;BME280;65830;0.000;0.000;2023-05-10T08:09:12;100334.03;;;14.28;57.51
76858;BME280;65830;0.000;0.000;2023-05-10T08:11:38;100342.72;;;14.30;57.88
76858;BME280;65830;0.000;0.000;2023-05-10T08:14:04;100341.16;;;14.38;55.34
76858;BME280;65830;0.000;0.000;2023-05-10T08:16:29;100343.84;;;14.38;56.13
76858;BME280;65830;0.000;0.000;2023-05-10T08:18:55;100345.34;;;14.40;57.12
76858;BME280;65830;0.000;0.000;2023-05-10T08:21:20;100352.53;;;14.40;57.57
76858;BME280;65830;0.000;0.000;2023-05-10T08:23:46;100346.78;;;14.35;54.85
76858;BME280;65830;0.000;0.000;2023-05-10T08:26:11;100349.06;;;14.29;56.27
76858;BME280;65830;0.000;0.000;2023-05-10T08:28:37;100353.72;;;14.27;56.42
76858;BME280;65830;0.000;0.000;2023-05-10T08:31:02;100346.25;;;14.31;57.03
76858;BME280;65830;0.000;0.000;2023-05-10T08:33:28;100348.94;;;14.31;56.85
76858;BME280;65830;0.000;0.000;2023-05-10T08:35:53;100353.50;;;14.39;56.38
76858;BME280;65830;0.000;0.000;2023-05-10T08:38:19;100355.31;;;14.48;56.90
76858;BME280;65830;0.000;0.000;2023-05-10T08:40:44;100356.81;;;14.60;57.00
76858;BME280;65830;0.000;0.000;2023-05-10T08:43:11;100351.19;;;14.63;56.17
76858;BME280;65830;0.000;0.000;2023-05-10T08:45:38;100349.13;;;14.57;56.96
76858;BME280;65830;0.000;0.000;2023-05-10T08:48:07;100354.47;;;14.57;56.87
76858;BME280;65830;0.000;0.000;2023-05-10T08:50:35;100343.19;;;14.63;56.28
76858;BME280;65830;0.000;0.000;2023-05-10T08:53:00;100350.28;;;14.73;56.20
76858;BME280;65830;0.000;0.000;2023-05-10T08:55:29;100344.81;;;14.74;55.42
76858;BME280;65830;0.000;0.000;2023-05-10T08:57:55;100343.09;;;14.83;55.52
76858;BME280;65830;0.000;0.000;2023-05-10T09:00:21;100359.91;;;14.93;55.82
76858;BME280;65830;0.000;0.000;2023-05-10T09:02:48;100353.81;;;15.01;54.68
76858;BME280;65830;0.000;0.000;2023-05-10T09:05:14;100353.41;;;14.96;54.93
76858;BME280;65830;0.000;0.000;2023-05-10T09:07:41;100350.19;;;14.92;54.31
76858;BME280;65830;0.000;0.000;2023-05-10T09:10:07;100348.53;;;14.91;53.42
76858;BME280;65830;0.000;0.000;2023-05-10T09:12:34;100345.59;;;14.84;52.79
76858;BME280;65830;0.000;0.000;2023-05-10T09:14:59;100342.53;;;14.79;53.32
76858;BME280;65830;0.000;0.000;2023-05-10T09:17:25;100341.38;;;14.82;53.35
76858;BME280;65830;0.000;0.000;2023-05-10T09:19:58;100332.22;;;14.84;54.05
76858;BME280;65830;0.000;0.000;2023-05-10T09:22:24;100340.19;;;14.94;55.07
76858;BME280;65830;0.000;0.000;2023-05-10T09:25:06;100332.03;;;14.96;54.67
76858;BME280;65830;0.000;0.000;2023-05-10T09:27:32;100330.56;;;14.83;53.99
76858;BME280;65830;0.000;0.000;2023-05-10T09:29:57;100322.31;;;14.77;53.33
76858;BME280;65830;0.000;0.000;2023-05-10T09:32:35;100318.88;;;14.84;54.29
76858;BME280;65830;0.000;0.000;2023-05-10T09:35:11;100319.53;;;14.68;53.06
76858;BME280;65830;0.000;0.000;2023-05-10T09:37:38;100316.09;;;14.76;53.20
76858;BME280;65830;0.000;0.000;2023-05-10T09:40:05;100308.97;;;14.95;53.11
76858;BME280;65830;0.000;0.000;2023-05-10T09:42:33;100308.19;;;15.02;53.41
76858;BME280;65830;0.000;0.000;2023-05-10T09:45:05;100312.09;;;15.08;53.78
76858;BME280;65830;0.000;0.000;2023-05-10T09:47:31;100315.03;;;15.15;51.78
76858;BME280;65830;0.000;0.000;2023-05-10T09:49:57;100306.38;;;15.21;51.15
76858;BME280;65830;0.000;0.000;2023-05-10T09:52:28;100304.47;;;15.31;52.43
76858;BME280;65830;0.000;0.000;2023-05-10T09:54:54;100306.22;;;15.40;52.20
76858;BME280;65830;0.000;0.000;2023-05-10T09:57:20;100301.97;;;15.56;52.44
76858;BME280;65830;0.000;0.000;2023-05-10T09:59:46;100292.06;;;15.66;51.13
76858;BME280;65830;0.000;0.000;2023-05-10T10:02:12;100293.81;;;15.75;51.33
76858;BME280;65830;0.000;0.000;2023-05-10T10:04:40;100294.03;;;15.64;50.50
76858;BME280;65830;0.000;0.000;2023-05-10T10:07:07;100301.16;;;15.73;52.02
76858;BME280;65830;0.000;0.000;2023-05-10T10:09:33;100295.84;;;15.81;51.94
76858;BME280;65830;0.000;0.000;2023-05-10T10:11:59;100282.16;;;15.84;50.70
76858;BME280;65830;0.000;0.000;2023-05-10T10:14:25;100279.28;;;15.78;50.85
76858;BME280;65830;0.000;0.000;2023-05-10T10:16:51;100279.16;;;15.87;50.27
76858;BME280;65830;0.000;0.000;2023-05-10T10:19:18;100278.25;;;16.05;50.36
76858;BME280;65830;0.000;0.000;2023-05-10T10:21:43;100278.38;;;16.21;51.45
76858;BME280;65830;0.000;0.000;2023-05-10T10:24:09;100276.91;;;16.35;51.87
76858;BME280;65830;0.000;0.000;2023-05-10T10:26:35;100275.09;;;16.44;50.11
76858;BME280;65830;0.000;0.000;2023-05-10T10:31:34;100273.28;;;16.53;49.92
76858;BME280;65830;0.000;0.000;2023-05-10T10:34:01;100276.81;;;16.53;49.35
76858;BME280;65830;0.000;0.000;2023-05-10T10:36:28;100272.25;;;16.45;49.49
76858;BME280;65830;0.000;0.000;2023-05-10T10:38:55;100278.84;;;16.67;49.15
76858;BME280;65830;0.000;0.000;2023-05-10T10:46:57;100269.13;;;16.75;47.20
76858;BME280;65830;0.000;0.000;2023-05-10T10:49:22;100272.69;;;16.75;46.35
76858;BME280;65830;0.000;0.000;2023-05-10T10:54:32;100254.25;;;16.80;46.41
76858;BME280;65830;0.000;0.000;2023-05-10T10:57:14;100258.50;;;16.99;47.92
76858;BME280;65830;0.000;0.000;2023-05-10T10:59:43;100267.22;;;17.01;46.24
76858;BME280;65830;0.000;0.000;2023-05-10T11:04:59;100254.31;;;17.38;46.80
76858;BME280;65830;0.000;0.000;2023-05-10T11:07:26;100258.16;;;17.52;47.22
76858;BME280;65830;0.000;0.000;2023-05-10T11:09:51;100261.53;;;17.45;47.15
76858;BME280;65830;0.000;0.000;2023-05-10T11:12:17;100254.50;;;17.53;47.04
76858;BME280;65830;0.000;0.000;2023-05-10T11:14:43;100253.31;;;17.55;47.43
76858;BME280;65830;0.000;0.000;2023-05-10T11:17:24;100257.50;;;17.66;47.40
76858;BME280;65830;0.000;0.000;2023-05-10T11:20:07;100248.06;;;17.78;47.97
76858;BME280;65830;0.000;0.000;2023-05-10T11:22:52;100246.75;;;17.74;47.36
76858;BME280;65830;0.000;0.000;2023-05-10T11:25:18;100252.97;;;17.58;46.78
76858;BME280;65830;0.000;0.000;2023-05-10T11:27:45;100250.09;;;17.76;47.71
76858;BME280;65830;0.000;0.000;2023-05-10T11:30:13;100244.72;;;17.84;46.75
76858;BME280;65830;0.000;0.000;2023-05-10T11:32:39;100236.50;;;17.86;47.22
76858;BME280;65830;0.000;0.000;2023-05-10T11:35:08;100231.94;;;17.95;46.78
76858;BME280;65830;0.000;0.000;2023-05-10T11:37:35;100231.72;;;18.13;45.14
76858;BME280;65830;0.000;0.000;2023-05-10T11:40:00;100224.94;;;18.56;45.31
76858;BME280;65830;0.000;0.000;2023-05-10T11:42:27;100226.16;;;18.77;43.56
76858;BME280;65830;0.000;0.000;2023-05-10T11:44:53;100217.78;;;19.56;42.05
76858;BME280;65830;0.000;0.000;2023-05-10T11:47:19;100229.91;;;19.75;43.15
76858;BME280;65830;0.000;0.000;2023-05-10T11:49:46;100232.66;;;19.67;42.01
76858;BME280;65830;0.000;0.000;2023-05-10T11:52:12;100235.78;;;19.55;40.56
76858;BME280;65830;0.000;0.000;2023-05-10T11:54:37;100230.53;;;20.36;38.89
76858;BME280;65830;0.000;0.000;2023-05-10T11:57:03;100227.72;;;21.02;39.27
76858;BME280;65830;0.000;0.000;2023-05-10T11:59:29;100234.88;;;21.38;40.25
76858;BME280;65830;0.000;0.000;2023-05-10T12:01:54;100225.47;;;21.28;38.22
76858;BME280;65830;0.000;0.000;2023-05-10T12:04:20;100230.88;;;20.48;38.27
76858;BME280;65830;0.000;0.000;2023-05-10T12:06:46;100230.16;;;20.24;40.15
76858;BME280;65830;0.000;0.000;2023-05-10T12:09:12;100218.53;;;20.97;39.63
76858;BME280;65830;0.000;0.000;2023-05-10T12:11:39;100214.84;;;21.26;38.19
76858;BME280;65830;0.000;0.000;2023-05-10T12:14:05;100220.09;;;21.34;38.81
76858;BME280;65830;0.000;0.000;2023-05-10T12:16:31;100222.41;;;21.09;37.33
76858;BME280;65830;0.000;0.000;2023-05-10T12:18:57;100223.59;;;21.50;37.55
76858;BME280;65830;0.000;0.000;2023-05-10T12:21:23;100223.66;;;21.98;36.42
76858;BME280;65830;0.000;0.000;2023-05-10T12:23:52;100218.44;;;21.33;38.34
76858;BME280;65830;0.000;0.000;2023-05-10T12:26:21;100206.88;;;20.90;39.25
76858;BME280;65830;0.000;0.000;2023-05-10T12:28:47;100195.50;;;20.36;39.06
76858;BME280;65830;0.000;0.000;2023-05-10T12:31:12;100197.91;;;20.31;38.27
76858;BME280;65830;0.000;0.000;2023-05-10T12:33:39;100212.81;;;19.97;41.14
76858;BME280;65830;0.000;0.000;2023-05-10T12:36:06;100201.47;;;19.57;40.41
76858;BME280;65830;0.000;0.000;2023-05-10T12:38:33;100211.53;;;19.40;40.20
76858;BME280;65830;0.000;0.000;2023-05-10T12:41:00;100200.13;;;19.38;41.01
76858;BME280;65830;0.000;0.000;2023-05-10T12:43:25;100197.16;;;19.86;39.05
76858;BME280;65830;0.000;0.000;2023-05-10T12:45:51;100185.00;;;20.27;38.49
76858;BME280;65830;0.000;0.000;2023-05-10T12:48:17;100184.78;;;21.29;37.74
76858;BME280;65830;0.000;0.000;2023-05-10T12:50:42;100174.81;;;20.80;37.58
76858;BME280;65830;0.000;0.000;2023-05-10T12:53:08;100175.28;;;20.47;38.85
76858;BME280;65830;0.000;0.000;2023-05-10T12:55:33;100171.53;;;20.27;39.72
76858;BME280;65830;0.000;0.000;2023-05-10T12:57:59;100166.56;;;20.09;39.80
76858;BME280;65830;0.000;0.000;2023-05-10T13:00:25;100165.72;;;20.08;40.80
76858;BME280;65830;0.000;0.000;2023-05-10T13:02:50;100152.75;;;20.55;39.08
76858;BME280;65830;0.000;0.000;2023-05-10T13:05:16;100155.81;;;20.88;37.85
76858;BME280;65830;0.000;0.000;2023-05-10T13:07:41;100151.72;;;20.99;36.08
76858;BME280;65830;0.000;0.000;2023-05-10T13:10:09;100135.47;;;20.28;37.26
76858;BME280;65830;0.000;0.000;2023-05-10T13:12:34;100133.44;;;20.94;39.54
76858;BME280;65830;0.000;0.000;2023-05-10T13:15:00;100133.66;;;21.21;38.86
76858;BME280;65830;0.000;0.000;2023-05-10T13:17:26;100141.84;;;21.06;36.56
76858;BME280;65830;0.000;0.000;2023-05-10T13:19:51;100136.94;;;20.88;37.82
76858;BME280;65830;0.000;0.000;2023-05-10T13:22:17;100143.09;;;20.82;38.54
76858;BME280;65830;0.000;0.000;2023-05-10T13:24:42;100124.34;;;20.95;36.28
76858;BME280;65830;0.000;0.000;2023-05-10T13:27:08;100135.78;;;20.76;36.36
76858;BME280;65830;0.000;0.000;2023-05-10T13:29:34;100141.78;;;20.56;38.36
76858;BME280;65830;0.000;0.000;2023-05-10T13:31:59;100128.84;;;19.94;38.75
76858;BME280;65830;0.000;0.000;2023-05-10T13:34:26;100131.19;;;19.82;37.29
76858;BME280;65830;0.000;0.000;2023-05-10T13:36:52;100127.13;;;19.71;39.23
76858;BME280;65830;0.000;0.000;2023-05-10T13:39:19;100127.78;;;19.58;40.13